Time;durP1;ratioP1;P1;durP2;ratioP2;P2;SDS_P1;SDS_P2;PMS_P1;PMS_P2;Temp;Humidity;BMP_temperature;BMP_pressure;BME280_temperature;BME280_humidity;BME280_pressure;Samples;Min_cycle;Max_cycle;Signal;HPM_P1;HPM_P2
2022/08/11 00:01:31;;;;;;;3.25;1.60;;;15.10;60.70;;;;;;4078658;29;20115;-85
2022/08/11 00:03:33;;;;;;;7.28;1.30;;;15.10;60.90;;;;;;4096701;28;20023;-86
2022/08/11 00:05:53;;;;;;;2.08;1.10;;;15.10;60.80;;;;;;4093598;28;20397;-86
2022/08/11 00:07:56;;;;;;;3.22;1.27;;;15.10;61.10;;;;;;4075014;29;20024;-86
2022/08/11 00:09:58;;;;;;;3.78;1.17;;;15.00;60.90;;;;;;4111646;28;20046;-86
2022/08/11 00:11:59;;;;;;;6.33;1.67;;;15.00;61.00;;;;;;4081965;29;20040;-86
2022/08/11 00:14:03;;;;;;;4.00;1.42;;;15.00;61.00;;;;;;4094280;28;20027;-86
2022/08/11 00:16:20;;;;;;;3.42;1.42;;;14.90;61.10;;;;;;4119613;28;20762;-85
2022/08/11 00:18:25;;;;;;;4.05;1.50;;;14.90;61.40;;;;;;4098290;28;20035;-87
2022/08/11 00:20:31;;;;;;;4.47;1.42;;;14.90;61.40;;;;;;4086918;29;20090;-86
2022/08/11 00:22:33;;;;;;;6.18;1.55;;;14.90;61.60;;;;;;4111227;28;20031;-86
2022/08/11 00:24:37;;;;;;;5.63;1.40;;;14.80;61.60;;;;;;4080931;29;20024;-85
2022/08/11 00:26:38;;;;;;;4.55;1.77;;;14.80;61.70;;;;;;4097836;28;20631;-86
2022/08/11 00:28:40;;;;;;;1.80;1.20;;;14.80;61.80;;;;;;4082455;29;20023;-85
2022/08/11 00:30:41;;;;;;;10.25;1.70;;;14.70;61.80;;;;;;4111201;28;20126;-86
2022/08/11 00:32:53;;;;;;;2.45;1.35;;;14.70;62.00;;;;;;4080479;29;20039;-86
2022/08/11 00:34:56;;;;;;;5.68;1.52;;;14.70;62.00;;;;;;4108574;28;20042;-87
2022/08/11 00:37:08;;;;;;;2.47;1.52;;;14.60;61.90;;;;;;4080828;29;20095;-87
2022/08/11 00:39:09;;;;;;;3.22;1.60;;;14.60;62.10;;;;;;4082610;29;20031;-85
2022/08/11 00:41:30;;;;;;;10.02;1.75;;;14.60;62.00;;;;;;4080410;29;20103;-87
2022/08/11 00:44:16;;;;;;;7.55;1.40;;;14.60;62.10;;;;;;4095721;28;20074;-86
2022/08/11 00:46:26;;;;;;;5.05;1.50;;;14.50;62.40;;;;;;4050569;29;20032;-86
2022/08/11 00:48:42;;;;;;;4.90;1.73;;;14.50;62.30;;;;;;4080614;29;20228;-86
2022/08/11 00:51:08;;;;;;;4.75;1.80;;;14.40;62.60;;;;;;4079233;29;20069;-85
2022/08/11 00:53:45;;;;;;;3.88;1.38;;;14.40;62.50;;;;;;4080858;29;20042;-86
2022/08/11 00:56:27;;;;;;;6.75;1.58;;;14.40;62.50;;;;;;4108321;28;20070;-85
2022/08/11 00:58:55;;;;;;;4.22;1.10;;;14.40;62.30;;;;;;4053689;29;20088;-85
2022/08/11 01:01:09;;;;;;;3.58;1.35;;;14.30;62.60;;;;;;4059727;29;20049;-88
2022/08/11 01:03:26;;;;;;;7.47;2.10;;;14.30;62.60;;;;;;4063062;29;20139;-88
2022/08/11 01:05:50;;;;;;;4.47;1.48;;;14.30;62.50;;;;;;4033630;29;20028;-86
2022/08/11 01:08:19;;;;;;;5.75;1.70;;;14.20;62.60;;;;;;4047372;29;20032;-85
2022/08/11 01:10:48;;;;;;;4.90;1.38;;;14.20;63.00;;;;;;4030109;29;20056;-85
2022/08/11 01:13:10;;;;;;;7.63;1.42;;;14.10;63.00;;;;;;4062525;29;20428;-85
2022/08/11 01:16:00;;;;;;;2.90;1.00;;;14.10;63.00;;;;;;4059709;29;20043;-86
2022/08/11 01:18:28;;;;;;;2.25;1.20;;;14.10;63.40;;;;;;4062358;29;20068;-86
2022/08/11 01:20:47;;;;;;;3.53;1.15;;;14.00;63.40;;;;;;4046056;29;20041;-86
2022/08/11 01:23:06;;;;;;;1.92;1.15;;;14.00;63.10;;;;;;4047663;29;20048;-86
2022/08/11 01:25:53;;;;;;;4.78;1.30;;;14.00;63.30;;;;;;4045018;29;20033;-86
2022/08/11 01:28:39;;;;;;;2.83;1.30;;;14.00;63.90;;;;;;4059898;29;20453;-86
2022/08/11 01:31:13;;;;;;;2.42;1.40;;;14.00;64.10;;;;;;4065285;29;20035;-86
2022/08/11 01:33:48;;;;;;;3.50;1.05;;;14.00;64.10;;;;;;4061629;29;20490;-86
2022/08/11 01:35:58;;;;;;;3.97;1.40;;;13.90;64.00;;;;;;4093060;28;20082;-86
2022/08/11 01:38:32;;;;;;;1.63;1.10;;;13.90;63.70;;;;;;4065023;29;20035;-86
2022/08/11 01:40:54;;;;;;;4.00;1.05;;;13.90;64.90;;;;;;4094916;28;20031;-85
2022/08/11 01:46:05;;;;;;;3.05;1.02;;;13.80;64.10;;;;;;4110140;28;20027;-83
2022/08/11 01:48:19;;;;;;;3.80;1.25;;;13.80;63.90;;;;;;4081569;29;20454;-85
2022/08/11 01:50:45;;;;;;;3.22;1.50;;;13.80;64.10;;;;;;4066023;29;20487;-85
2022/08/11 01:53:26;;;;;;;4.97;1.33;;;13.80;64.20;;;;;;4105601;28;20237;-85
2022/08/11 01:55:31;;;;;;;6.30;1.30;;;13.70;64.30;;;;;;4077184;29;20028;-86
2022/08/11 01:57:43;;;;;;;3.30;1.10;;;13.70;63.90;;;;;;4095219;28;20031;-85
2022/08/11 01:59:48;;;;;;;1.42;0.90;;;13.70;63.90;;;;;;4077266;29;20671;-85
2022/08/11 02:05:22;;;;;;;4.00;1.30;;;13.60;64.40;;;;;;4104650;28;20027;-86
2022/08/11 02:07:51;;;;;;;1.35;0.90;;;13.60;64.40;;;;;;4083911;28;20034;-87
2022/08/11 02:12:57;;;;;;;1.45;1.15;;;13.50;64.40;;;;;;4108018;28;20555;-87
2022/08/11 02:15:21;;;;;;;2.08;1.10;;;13.50;64.10;;;;;;4092271;28;20020;-86
2022/08/11 02:17:56;;;;;;;1.40;1.00;;;13.50;64.20;;;;;;4109482;28;20520;-84
2022/08/11 02:25:40;;;;;;;6.28;1.30;;;13.50;64.60;;;;;;4096353;28;20026;-85
2022/08/11 02:27:46;;;;;;;2.33;1.50;;;13.40;64.40;;;;;;4077464;29;20114;-86
2022/08/11 02:30:06;;;;;;;7.95;1.40;;;13.40;64.60;;;;;;4096537;28;20035;-84
2022/08/11 02:35:10;;;;;;;5.97;1.30;;;13.40;64.80;;;;;;4096093;29;20622;-85
2022/08/11 02:37:23;;;;;;;1.67;1.00;;;13.40;65.10;;;;;;4064188;29;20027;-86
2022/08/11 02:39:30;;;;;;;9.02;1.70;;;13.30;64.90;;;;;;4070180;29;20103;-85
2022/08/11 02:44:06;;;;;;;3.22;1.60;;;13.30;65.10;;;;;;4095181;29;20026;-86
2022/08/11 02:46:26;;;;;;;3.88;1.38;;;13.30;65.10;;;;;;4077011;29;20039;-85
2022/08/11 02:51:24;;;;;;;5.80;1.33;;;13.30;65.30;;;;;;4120114;28;20054;-87
2022/08/11 02:53:38;;;;;;;5.70;1.70;;;13.30;65.50;;;;;;4102723;28;20058;-86
2022/08/11 02:55:48;;;;;;;4.10;1.83;;;13.20;65.10;;;;;;4101365;28;20643;-86
2022/08/11 02:58:15;;;;;;;3.33;1.52;;;13.20;65.10;;;;;;4081788;29;20039;-86
2022/08/11 03:00:17;;;;;;;3.10;1.65;;;13.20;65.60;;;;;;4079085;29;20028;-86
2022/08/11 03:02:45;;;;;;;2.63;1.48;;;13.20;65.30;;;;;;4076197;29;20036;-86
2022/08/11 03:05:30;;;;;;;3.15;1.55;;;13.20;65.60;;;;;;4096329;29;20036;-85
2022/08/11 03:08:05;;;;;;;2.97;1.70;;;13.20;65.70;;;;;;4112608;28;20050;-85
2022/08/11 03:10:27;;;;;;;4.13;1.60;;;13.20;65.60;;;;;;4096566;28;20078;-85
2022/08/11 03:18:25;;;;;;;13.45;3.40;;;13.10;65.60;;;;;;4077421;29;20040;-85
2022/08/11 03:20:41;;;;;;;7.38;4.13;;;13.10;65.90;;;;;;4081355;29;20027;-86
2022/08/11 03:23:10;;;;;;;8.88;4.70;;;13.10;66.00;;;;;;4083567;29;20040;-85
2022/08/11 03:25:41;;;;;;;14.88;5.85;;;13.00;66.00;;;;;;4115993;28;20154;-85
2022/08/11 03:28:23;;;;;;;13.73;6.47;;;13.10;66.60;;;;;;4100395;28;20141;-86
2022/08/11 03:30:31;;;;;;;12.55;6.68;;;13.10;66.90;;;;;;4045640;29;20105;-87
2022/08/11 03:32:44;;;;;;;10.10;5.78;;;13.00;66.60;;;;;;4049646;29;20052;-86
2022/08/11 03:34:49;;;;;;;11.13;5.90;;;13.00;66.60;;;;;;4034133;29;20041;-86
2022/08/11 03:37:05;;;;;;;12.55;5.90;;;13.00;66.60;;;;;;4034940;29;20461;-85
2022/08/11 03:39:14;;;;;;;14.43;6.25;;;13.00;66.70;;;;;;4035079;29;20040;-85
2022/08/11 03:41:43;;;;;;;15.30;6.80;;;13.00;66.90;;;;;;4033582;29;20049;-86
2022/08/11 03:44:03;;;;;;;15.50;7.07;;;13.00;67.00;;;;;;4031751;29;20404;-85
2022/08/11 03:46:11;;;;;;;11.93;6.83;;;13.00;67.40;;;;;;4019198;29;20029;-86
2022/08/11 03:48:24;;;;;;;15.07;6.95;;;13.00;66.90;;;;;;4030219;29;21255;-86
2022/08/11 03:50:43;;;;;;;14.60;7.50;;;13.00;67.30;;;;;;4033601;29;20540;-85
2022/08/11 03:53:11;;;;;;;12.00;7.30;;;12.90;67.00;;;;;;4018180;29;20340;-86
2022/08/11 03:55:46;;;;;;;10.93;6.70;;;12.90;67.30;;;;;;4032485;29;20045;-86
2022/08/11 03:58:12;;;;;;;11.75;6.57;;;12.90;67.30;;;;;;4032730;29;20048;-85
2022/08/11 04:00:18;;;;;;;9.88;6.15;;;12.90;67.10;;;;;;4019327;29;20053;-85
2022/08/11 04:02:24;;;;;;;9.85;5.38;;;12.90;67.20;;;;;;4032730;29;20486;-86
2022/08/11 04:05:00;;;;;;;9.20;5.43;;;12.90;67.10;;;;;;4019703;29;20037;-85
2022/08/11 04:07:15;;;;;;;12.55;5.40;;;12.80;67.50;;;;;;4055628;28;20383;-86
2022/08/11 04:09:16;;;;;;;8.35;4.90;;;12.90;67.10;;;;;;4109383;28;20697;-85
2022/08/11 04:11:37;;;;;;;12.40;5.47;;;12.80;67.10;;;;;;4065002;29;20048;-85
2022/08/11 04:15:58;;;;;;;7.68;4.60;;;12.80;67.20;;;;;;4109353;28;20897;-86
2022/08/11 04:16:45;;;;;;;12.45;5.00;;;12.80;67.60;;;;;;4097482;28;20415;-84
2022/08/11 04:19:13;;;;;;;12.95;5.30;;;12.80;67.50;;;;;;4069530;29;20024;-85
2022/08/11 04:21:28;;;;;;;14.85;5.80;;;12.80;67.90;;;;;;4112017;28;20779;-85
2022/08/11 04:24:06;;;;;;;16.80;7.20;;;12.80;67.90;;;;;;4066538;29;20636;-85
2022/08/11 04:26:40;;;;;;;14.38;6.72;;;12.80;68.30;;;;;;4097991;29;20061;-85
2022/08/11 04:28:59;;;;;;;21.35;7.63;;;12.90;68.50;;;;;;4114299;28;20081;-85
2022/08/11 04:31:30;;;;;;;15.27;7.35;;;12.80;68.50;;;;;;4082572;29;20093;-86
2022/08/11 04:33:58;;;;;;;16.98;8.00;;;12.80;68.70;;;;;;4068046;29;20063;-86
2022/08/11 04:39:03;;;;;;;21.70;7.90;;;12.80;69.10;;;;;;4113717;28;20482;-86
2022/08/11 04:41:25;;;;;;;13.70;8.32;;;12.90;69.00;;;;;;4097629;28;20039;-85
2022/08/11 04:43:44;;;;;;;15.35;7.85;;;12.90;69.80;;;;;;4097445;29;20028;-85
2022/08/11 04:46:00;;;;;;;16.40;7.93;;;12.90;70.10;;;;;;4118009;28;20042;-86
2022/08/11 05:01:53;;;;;;;15.05;7.18;;;13.20;70.90;;;;;;4112424;28;20039;-85
2022/08/11 05:06:49;;;;;;;12.95;7.88;;;13.30;71.50;;;;;;4118309;28;20030;-85
2022/08/11 05:09:07;;;;;;;14.63;7.72;;;13.40;71.80;;;;;;4088286;29;20042;-86
2022/08/11 05:11:26;;;;;;;15.35;8.07;;;13.50;72.90;;;;;;4086014;29;20023;-85
2022/08/11 05:57:17;;;;;;;8.63;4.53;;;15.90;77.90;;;;;;4102916;28;20043;-88
2022/08/11 06:02:18;;;;;;;5.72;3.55;;;16.20;79.60;;;;;;4138493;23;20142;-82
2022/08/11 06:04:24;;;;;;;9.95;4.38;;;16.40;79.20;;;;;;4142085;28;20034;-84
2022/08/11 06:06:27;;;;;;;8.68;3.50;;;16.50;79.70;;;;;;4146932;28;20034;-83
2022/08/11 06:08:35;;;;;;;7.60;3.53;;;16.70;79.60;;;;;;4132627;28;20500;-85
2022/08/11 06:10:39;;;;;;;12.15;4.05;;;16.80;79.80;;;;;;4149325;28;20026;-84
2022/08/11 06:12:42;;;;;;;9.98;3.70;;;17.00;79.90;;;;;;4129307;28;20030;-83
2022/08/11 06:14:44;;;;;;;8.25;3.63;;;17.10;79.90;;;;;;4134110;28;20681;-82
2022/08/11 06:16:51;;;;;;;7.45;3.78;;;17.30;79.70;;;;;;4129815;28;20030;-86
2022/08/11 06:18:53;;;;;;;4.32;3.28;;;17.40;79.70;;;;;;4115144;28;20038;-83
2022/08/11 06:20:56;;;;;;;9.82;4.20;;;17.50;79.70;;;;;;4134455;28;20045;-84
2022/08/11 06:23:06;;;;;;;8.02;3.38;;;17.70;79.70;;;;;;4122316;28;20030;-82
2022/08/11 06:25:08;;;;;;;4.72;3.40;;;17.80;79.70;;;;;;4138803;28;20092;-82
2022/08/11 06:27:09;;;;;;;5.70;3.42;;;17.90;79.30;;;;;;4102738;28;20522;-84
2022/08/11 06:29:11;;;;;;;7.18;3.45;;;18.00;79.00;;;;;;4120672;28;20057;-84
2022/08/11 06:31:22;;;;;;;7.95;3.80;;;18.20;78.90;;;;;;4119908;28;20034;-86
2022/08/11 06:33:38;;;;;;;10.15;3.70;;;18.20;79.10;;;;;;4133370;28;20518;-85
2022/08/11 06:35:59;;;;;;;6.13;3.35;;;18.40;78.80;;;;;;4121015;28;20026;-83
2022/08/11 06:38:16;;;;;;;8.82;3.90;;;18.40;78.40;;;;;;4115872;28;20044;-85
2022/08/11 06:40:38;;;;;;;11.30;4.22;;;18.60;78.20;;;;;;4133897;28;20057;-86
2022/08/11 06:43:01;;;;;;;11.32;3.72;;;18.70;77.80;;;;;;4118594;28;20034;-85
2022/08/11 06:45:19;;;;;;;5.13;2.53;;;18.80;77.20;;;;;;4122978;28;20451;-83
2022/08/11 06:47:20;;;;;;;5.68;2.45;;;19.00;76.60;;;;;;4132195;28;20398;-87
2022/08/11 06:51:53;;;;;;;5.57;2.33;;;19.10;75.00;;;;;;4129462;28;20137;-84
2022/08/11 06:53:58;;;;;;;3.75;2.20;;;19.30;74.70;;;;;;4099541;28;20443;-86
2022/08/11 07:00:41;;;;;;;6.10;1.67;;;19.60;72.80;;;;;;4117955;28;20514;-84
2022/08/11 07:02:54;;;;;;;2.58;1.58;;;19.70;72.00;;;;;;4117117;28;20038;-86
2022/08/11 07:05:07;;;;;;;4.70;2.38;;;19.80;71.50;;;;;;4132838;28;20030;-86
2022/08/11 07:17:31;;;;;;;4.38;1.50;;;20.30;66.60;;;;;;4136992;28;20037;-88
2022/08/11 07:29:13;;;;;;;8.85;1.85;;;20.80;66.50;;;;;;4136459;28;20055;-84
2022/08/11 07:31:32;;;;;;;6.05;2.10;;;20.90;66.50;;;;;;4133167;28;20050;-87
2022/08/11 07:33:56;;;;;;;5.22;2.00;;;21.00;66.60;;;;;;4104201;28;20269;-86
2022/08/11 07:35:59;;;;;;;;;;;21.10;65.90;;;;;;4118491;28;20032;-88
2022/08/11 07:38:10;;;;;;;8.07;1.95;;;21.10;65.50;;;;;;4139268;28;19964;-88
2022/08/11 07:40:11;;;;;;;4.35;2.10;;;21.20;65.30;;;;;;4133376;28;20034;-86
2022/08/11 07:42:18;;;;;;;6.75;2.30;;;21.30;65.30;;;;;;4138346;28;20080;-87
2022/08/11 07:44:21;;;;;;;4.68;1.52;;;21.30;64.90;;;;;;4097285;28;20440;-87
2022/08/11 07:53:22;;;;;;;2.60;1.25;;;21.50;64.30;;;;;;4141718;28;20402;-90
2022/08/11 07:55:25;;;;;;;2.58;1.45;;;21.60;63.60;;;;;;4136763;28;20735;-86
2022/08/11 08:18:34;;;;;;;2.90;1.00;;;22.10;58.90;;;;;;4119685;28;20402;-87
2022/08/11 08:20:41;;;;;;;3.40;1.58;;;22.20;58.80;;;;;;4131410;28;20029;-86
2022/08/11 08:22:43;;;;;;;12.45;1.75;;;22.20;57.50;;;;;;4125867;28;20239;-87
2022/08/11 08:24:44;;;;;;;3.20;1.27;;;22.30;57.50;;;;;;4130644;28;20127;-86
2022/08/11 08:26:57;;;;;;;2.58;1.30;;;22.30;57.90;;;;;;4116396;28;20053;-86
2022/08/11 08:31:22;;;;;;;6.40;1.23;;;22.30;57.20;;;;;;4113002;28;20046;-86
2022/08/11 08:33:26;;;;;;;7.22;1.60;;;22.40;57.30;;;;;;4131830;28;20030;-86
2022/08/11 08:35:29;;;;;;;2.97;1.40;;;22.40;55.90;;;;;;4147798;28;20084;-87
2022/08/11 08:37:30;;;;;;;2.15;1.10;;;22.40;56.30;;;;;;4136475;28;20091;-87
2022/08/11 08:39:36;;;;;;;8.90;1.17;;;22.40;56.80;;;;;;4119338;28;20541;-88
2022/08/11 08:41:38;;;;;;;5.07;1.13;;;22.50;56.10;;;;;;4112550;28;20073;-89
2022/08/11 08:43:41;;;;;;;6.28;1.10;;;22.50;56.10;;;;;;4099426;28;20033;-86
2022/08/11 08:45:42;;;;;;;4.50;1.10;;;22.50;55.50;;;;;;4117045;28;20061;-87
2022/08/11 08:48:00;;;;;;;2.20;1.00;;;22.50;54.50;;;;;;4128694;28;20346;-87
2022/08/11 08:50:18;;;;;;;2.95;0.90;;;22.50;53.20;;;;;;4133449;28;20117;-86
2022/08/11 08:52:23;;;;;;;4.75;1.42;;;22.60;53.60;;;;;;4131260;28;20499;-87
2022/08/11 08:54:44;;;;;;;2.72;1.00;;;22.60;52.50;;;;;;4130829;28;20038;-87
2022/08/11 08:56:47;;;;;;;2.67;1.20;;;22.60;52.70;;;;;;4130961;28;20602;-86
2022/08/11 08:58:48;;;;;;;7.80;1.60;;;22.70;54.00;;;;;;4120374;28;20029;-85
2022/08/11 09:00:53;;;;;;;7.90;1.25;;;22.70;54.10;;;;;;4118957;28;20038;-86
2022/08/11 09:02:54;;;;;;;3.33;1.25;;;22.70;53.80;;;;;;4131273;28;20053;-89
2022/08/11 09:04:55;;;;;;;7.32;1.17;;;22.80;54.00;;;;;;4119078;28;20034;-87
2022/08/11 09:06:58;;;;;;;5.55;1.33;;;22.80;53.90;;;;;;4107675;28;20034;-87
2022/08/11 09:08:59;;;;;;;3.05;0.93;;;22.90;53.30;;;;;;4146411;28;20022;-90
2022/08/11 09:13:22;;;;;;;4.78;1.10;;;22.90;52.80;;;;;;4134488;28;20030;-90
2022/08/11 09:15:23;;;;;;;5.10;1.42;;;23.00;52.40;;;;;;4128117;28;20096;-87
2022/08/11 09:17:29;;;;;;;1.75;0.85;;;23.00;52.50;;;;;;4151361;28;20037;-86
2022/08/11 09:19:30;;;;;;;7.28;1.05;;;23.00;52.60;;;;;;4130946;28;20045;-90
2022/08/11 09:21:32;;;;;;;2.13;0.98;;;23.10;52.60;;;;;;4099327;28;20031;-86
2022/08/11 09:28:21;;;;;;;5.68;1.40;;;23.20;50.70;;;;;;4132974;28;22075;-87
2022/08/11 09:30:24;;;;;;;;;;;23.20;50.30;;;;;;4122750;28;20041;-89
2022/08/11 09:32:28;;;;;;;5.65;1.08;;;23.30;50.60;;;;;;4118644;28;19968;-86
2022/08/11 09:34:29;;;;;;;2.45;0.90;;;23.30;50.60;;;;;;4117679;28;20483;-85
2022/08/11 09:41:13;;;;;;;3.15;1.20;;;23.40;50.50;;;;;;4129841;28;20430;-88
2022/08/11 09:46:00;;;;;;;3.50;1.20;;;23.40;50.70;;;;;;4054098;29;20036;-88
2022/08/11 09:48:04;;;;;;;4.40;1.40;;;23.40;51.40;;;;;;4040271;29;20151;-89
2022/08/11 09:50:07;;;;;;;7.55;1.42;;;23.40;51.30;;;;;;4029215;29;20029;-85
2022/08/11 09:52:12;;;;;;;2.70;1.10;;;23.50;51.50;;;;;;4048185;29;20040;-85
2022/08/11 09:54:15;;;;;;;3.53;1.35;;;23.50;51.40;;;;;;4051109;29;20036;-86
2022/08/11 09:58:43;;;;;;;8.65;1.27;;;23.50;50.90;;;;;;4033464;29;20047;-86
2022/08/11 10:00:48;;;;;;;7.05;1.60;;;23.60;51.50;;;;;;4056112;29;20068;-90
2022/08/11 10:02:52;;;;;;;2.35;1.23;;;23.60;50.80;;;;;;4037014;29;20513;-87
2022/08/11 10:07:00;;;;;;;6.15;1.30;;;23.60;50.70;;;;;;4050580;29;20313;-87
2022/08/11 10:07:19;;;;;;;2.30;1.20;;;23.70;50.20;;;;;;4050825;29;20036;-86
2022/08/11 10:09:22;;;;;;;7.43;1.20;;;23.70;50.40;;;;;;4041930;29;20040;-86
2022/08/11 10:11:24;;;;;;;1.92;1.20;;;23.70;49.80;;;;;;4049494;29;20072;-88
2022/08/11 10:15:32;;;;;;;1.50;1.00;;;23.80;49.30;;;;;;4051842;29;20064;-88
2022/08/11 10:15:57;;;;;;;2.17;1.17;;;23.80;49.10;;;;;;4050624;29;20079;-88
2022/08/11 10:20:37;;;;;;;5.70;1.13;;;23.90;48.90;;;;;;4119130;28;20515;-91
2022/08/11 10:27:19;;;;;;;3.65;1.00;;;23.80;49.10;;;;;;4116303;28;20175;-88
2022/08/11 10:34:07;;;;;;;3.38;1.10;;;23.80;49.10;;;;;;4129612;28;20472;-84
2022/08/11 10:36:07;;;;;;;1.77;1.08;;;23.90;49.50;;;;;;4118338;28;20056;-86
2022/08/11 10:38:12;;;;;;;2.40;1.15;;;23.90;49.80;;;;;;4131612;28;20089;-85
2022/08/11 10:40:21;;;;;;;11.50;1.90;;;23.90;49.70;;;;;;4119319;28;20027;-88
2022/08/11 10:44:50;;;;;;;3.63;1.25;;;23.90;49.00;;;;;;4129834;28;20033;-85
2022/08/11 10:49:14;;;;;;;10.45;1.20;;;23.90;49.20;;;;;;4133539;28;20026;-87
2022/08/11 10:51:16;;;;;;;2.33;1.13;;;23.90;49.20;;;;;;4103780;28;20153;-85
2022/08/11 11:00:20;;;;;;;16.20;1.92;;;23.90;48.90;;;;;;4122031;28;20149;-85
2022/08/11 11:02:21;;;;;;;8.07;1.55;;;23.90;48.40;;;;;;4131998;28;20133;-90
2022/08/11 11:04:54;;;;;;;5.32;1.30;;;23.90;48.60;;;;;;4135695;28;20022;-87
2022/08/11 11:07:15;;;;;;;5.85;1.35;;;24.00;48.90;;;;;;4120539;28;20030;-88
2022/08/11 11:09:28;;;;;;;4.35;1.20;;;24.00;48.30;;;;;;4125126;28;20026;-85
2022/08/11 11:18:42;;;;;;;2.20;0.98;;;24.10;47.80;;;;;;4109340;28;20778;-87
2022/08/11 11:20:45;;;;;;;4.38;1.23;;;24.10;47.50;;;;;;4129902;28;20044;-88
2022/08/11 11:22:51;;;;;;;3.95;1.00;;;24.20;47.70;;;;;;4130082;28;20030;-86
2022/08/11 11:25:20;;;;;;;1.88;1.25;;;24.20;47.30;;;;;;4131395;28;20586;-86
2022/08/11 11:27:37;;;;;;;2.85;1.33;;;24.20;46.80;;;;;;4133392;28;20050;-88
2022/08/11 11:29:53;;;;;;;17.63;1.23;;;24.20;47.00;;;;;;4138263;28;20042;-85
2022/08/11 11:32:45;;;;;;;2.67;1.27;;;24.20;46.40;;;;;;4117551;28;20836;-87
2022/08/11 11:35:15;;;;;;;13.88;1.50;;;24.20;47.00;;;;;;4092597;28;20606;-87
2022/08/11 11:37:17;;;;;;;7.65;1.20;;;24.20;46.90;;;;;;4118331;28;20069;-86
2022/08/11 11:39:22;;;;;;;3.63;1.33;;;24.20;46.90;;;;;;4120215;28;20030;-89
2022/08/11 11:41:25;;;;;;;3.03;1.38;;;24.30;46.90;;;;;;4130243;28;20886;-89
2022/08/11 11:43:26;;;;;;;15.93;1.55;;;24.30;47.10;;;;;;4137382;28;20032;-85
2022/08/11 11:45:27;;;;;;;5.38;1.40;;;24.30;47.10;;;;;;4136736;28;20054;-88
2022/08/11 11:47:30;;;;;;;3.45;1.42;;;24.30;46.90;;;;;;4117733;28;20571;-88
2022/08/11 11:49:31;;;;;;;3.50;1.30;;;24.30;46.80;;;;;;4136105;28;20503;-87
2022/08/11 11:51:32;;;;;;;3.95;1.50;;;24.30;46.50;;;;;;4138733;28;20052;-88
2022/08/11 11:53:34;;;;;;;3.17;1.35;;;24.40;46.60;;;;;;4139316;28;20057;-89
2022/08/11 11:55:36;;;;;;;1.30;0.77;;;24.40;46.70;;;;;;4131866;28;20030;-87
2022/08/11 12:02:16;;;;;;;5.85;1.75;;;24.50;46.60;;;;;;4135179;28;20032;-87
2022/08/11 12:04:20;;;;;;;6.38;1.30;;;24.50;46.70;;;;;;4136751;28;20100;-87
2022/08/11 12:06:24;;;;;;;3.47;1.30;;;24.60;46.60;;;;;;4122771;28;20039;-89
2022/08/11 12:08:26;;;;;;;3.08;1.50;;;24.60;46.00;;;;;;4132843;28;20602;-87
2022/08/11 12:10:27;;;;;;;3.05;1.17;;;24.60;45.70;;;;;;4132437;28;20041;-82
2022/08/11 12:14:51;;;;;;;6.30;1.52;;;24.60;45.30;;;;;;4131122;28;20066;-82
2022/08/11 12:16:53;;;;;;;2.42;1.10;;;24.60;44.90;;;;;;4130889;28;20038;-82
2022/08/11 12:18:57;;;;;;;3.72;1.40;;;24.60;44.50;;;;;;4116033;28;20041;-82
2022/08/11 12:21:02;;;;;;;3.13;1.40;;;24.60;44.70;;;;;;4132393;28;20061;-82
2022/08/11 12:27:43;;;;;;;6.38;1.30;;;24.60;44.20;;;;;;4134004;28;20025;-82
2022/08/11 12:29:55;;;;;;;3.00;1.42;;;24.50;44.20;;;;;;4135813;28;20052;-82
2022/08/11 12:31:57;;;;;;;5.90;1.10;;;24.60;44.50;;;;;;4132405;28;20085;-83
2022/08/11 12:34:06;;;;;;;14.93;2.03;;;24.50;44.30;;;;;;4134743;28;20022;-82
2022/08/11 12:36:14;;;;;;;4.50;1.30;;;24.60;44.30;;;;;;4112343;28;20081;-82
2022/08/11 12:38:19;;;;;;;4.18;1.13;;;24.50;43.90;;;;;;4133437;28;20022;-82
2022/08/11 12:45:27;;;;;;;4.03;1.40;;;24.50;44.40;;;;;;4136236;28;20021;-81
2022/08/11 12:51:55;;;;;;;2.70;1.63;;;24.60;43.70;;;;;;4135262;28;20069;-82
2022/08/11 12:52:20;;;;;;;6.53;1.20;;;24.60;43.20;;;;;;4134374;28;19913;-82
2022/08/11 12:54:58;;;;;;;3.78;1.27;;;24.60;42.90;;;;;;4122042;28;20022;-82
2022/08/11 13:06:36;;;;;;;2.97;1.20;;;24.70;42.20;;;;;;4138606;28;20025;-82
2022/08/11 13:08:39;;;;;;;2.45;0.90;;;24.60;42.20;;;;;;4124584;28;20129;-82
2022/08/11 13:13:00;;;;;;;2.17;1.10;;;24.70;41.90;;;;;;4134411;28;20474;-83
2022/08/11 13:15:01;;;;;;;4.53;1.05;;;24.80;42.00;;;;;;4131395;28;20104;-85
2022/08/11 13:17:21;;;;;;;4.63;1.60;;;24.80;41.50;;;;;;4109546;28;20033;-84
2022/08/11 13:19:23;;;;;;;2.13;1.00;;;24.80;41.20;;;;;;4122766;28;20109;-81
2022/08/11 13:21:26;;;;;;;6.40;1.02;;;24.90;41.20;;;;;;4116906;28;20093;-82
2022/08/11 13:23:29;;;;;;;4.00;1.13;;;24.90;40.50;;;;;;4116095;28;20056;-83
2022/08/11 13:25:31;;;;;;;2.30;1.00;;;24.90;40.50;;;;;;4117022;28;20030;-82
2022/08/11 13:27:35;;;;;;;2.60;0.93;;;25.00;40.50;;;;;;4134084;28;20048;-82
2022/08/11 13:29:36;;;;;;;7.93;1.48;;;24.90;39.30;;;;;;4136483;28;20087;-83
2022/08/11 13:31:38;;;;;;;8.80;1.08;;;25.00;38.50;;;;;;4121128;28;20026;-82
2022/08/11 13:33:50;;;;;;;5.28;0.70;;;25.00;38.50;;;;;;4123895;28;20127;-83
2022/08/11 13:35:53;;;;;;;2.25;0.70;;;25.10;36.90;;;;;;4138658;28;20544;-82
2022/08/11 13:37:55;;;;;;;3.35;1.00;;;25.10;38.50;;;;;;4135302;28;20053;-82
2022/08/11 13:39:57;;;;;;;2.28;0.80;;;25.10;38.60;;;;;;4133640;28;20062;-82
2022/08/11 13:42:01;;;;;;;2.47;1.02;;;25.10;38.00;;;;;;4117983;28;20031;-83
2022/08/11 13:44:03;;;;;;;3.25;0.75;;;25.10;38.00;;;;;;4133358;28;20092;-82
2022/08/11 13:46:19;;;;;;;1.20;0.90;;;25.20;37.30;;;;;;4133471;28;20102;-82
2022/08/11 13:48:22;;;;;;;9.10;0.82;;;25.20;37.70;;;;;;4121072;28;20031;-83
2022/08/11 13:52:47;;;;;;;1.52;0.82;;;25.20;36.80;;;;;;4125149;28;20037;-83
2022/08/11 13:54:51;;;;;;;4.70;1.08;;;25.20;37.00;;;;;;4128555;28;20278;-81
2022/08/11 13:56:56;;;;;;;2.35;0.82;;;25.20;36.80;;;;;;4134340;28;20542;-82
2022/08/11 13:58:58;;;;;;;6.78;1.05;;;25.20;36.80;;;;;;4133348;28;20030;-82
2022/08/11 14:00:59;;;;;;;0.60;0.60;;;25.30;36.10;;;;;;4131452;28;20038;-80
2022/08/11 14:03:00;;;;;;;1.35;0.80;;;25.30;36.20;;;;;;4141918;28;20033;-82
2022/08/11 14:05:06;;;;;;;1.77;0.82;;;25.30;35.90;;;;;;4140313;28;20030;-82
2022/08/11 14:07:10;;;;;;;1.25;0.80;;;25.30;36.20;;;;;;4119714;28;20535;-83
2022/08/11 14:09:13;;;;;;;1.20;0.65;;;25.30;35.00;;;;;;4130802;28;20464;-82
2022/08/11 14:13:40;;;;;;;2.22;0.60;;;25.30;33.10;;;;;;4133784;28;20033;-82
2022/08/11 14:15:44;;;;;;;1.58;0.63;;;25.30;34.60;;;;;;4128963;28;20049;-82
2022/08/11 14:18:05;;;;;;;3.35;0.80;;;25.20;33.60;;;;;;4131813;28;20132;-82
2022/08/11 14:20:09;;;;;;;1.23;0.68;;;25.20;34.70;;;;;;4136121;28;20053;-81
2022/08/11 14:22:14;;;;;;;1.40;0.80;;;25.20;34.40;;;;;;4131957;28;20061;-82
2022/08/11 14:24:16;;;;;;;1.60;1.05;;;25.20;35.80;;;;;;4132222;28;20022;-81
2022/08/11 14:26:25;;;;;;;2.20;0.73;;;25.10;35.00;;;;;;4128864;28;20045;-82
2022/08/11 14:28:26;;;;;;;1.70;0.77;;;25.20;36.10;;;;;;4131260;28;20026;-81
2022/08/11 14:32:47;;;;;;;5.15;1.08;;;25.10;36.40;;;;;;4130133;28;20280;-81
2022/08/11 14:34:49;;;;;;;2.55;1.00;;;25.10;36.90;;;;;;4129156;28;20034;-82
2022/08/11 14:36:58;;;;;;;2.08;0.70;;;25.10;36.20;;;;;;4117949;28;20134;-82
2022/08/11 14:39:11;;;;;;;2.17;0.57;;;25.10;35.30;;;;;;4129795;28;20078;-82
2022/08/11 14:48:16;;;;;;;1.63;0.70;;;25.10;36.50;;;;;;4113096;28;20475;-84
2022/08/11 14:50:22;;;;;;;2.05;1.08;;;25.10;37.10;;;;;;4127963;28;20053;-85
2022/08/11 14:52:24;;;;;;;1.80;0.70;;;25.10;36.50;;;;;;4117165;28;20602;-84
2022/08/11 14:56:47;;;;;;;4.10;0.50;;;25.10;37.90;;;;;;4127841;28;20030;-90
2022/08/11 14:58:48;;;;;;;2.55;0.80;;;25.00;36.30;;;;;;4129589;28;20026;-87
2022/08/11 15:00:52;;;;;;;0.93;0.50;;;25.00;35.70;;;;;;4128883;28;20061;-86
2022/08/11 15:03:10;;;;;;;3.63;0.70;;;25.00;34.90;;;;;;4132613;28;20038;-90
2022/08/11 15:05:11;;;;;;;3.70;0.80;;;25.00;36.10;;;;;;4132753;28;20030;-87
2022/08/11 15:07:12;;;;;;;1.83;0.90;;;25.00;37.10;;;;;;4114950;28;20034;-89
2022/08/11 15:09:13;;;;;;;3.40;0.70;;;25.00;36.50;;;;;;4114581;28;20101;-91
2022/08/11 15:13:37;;;;;;;1.30;0.80;;;25.00;35.60;;;;;;4127950;28;20037;-85
2022/08/11 15:18:03;;;;;;;1.15;0.75;;;25.00;36.50;;;;;;4117513;28;20035;-88
2022/08/11 15:25:09;;;;;;;4.45;0.93;;;25.10;37.50;;;;;;4052725;29;20041;-88
2022/08/11 15:39:19;;;;;;;4.40;0.93;;;25.10;36.30;;;;;;4054087;29;20083;-87
2022/08/11 15:46:32;;;;;;;5.03;0.83;;;25.10;36.00;;;;;;4068773;29;20090;-91
2022/08/11 15:48:33;;;;;;;3.63;0.85;;;25.20;36.90;;;;;;4055502;29;20076;-87
2022/08/11 15:50:40;;;;;;;5.90;1.00;;;25.20;37.00;;;;;;4073173;28;20040;-88
2022/08/11 15:53:09;;;;;;;7.95;0.90;;;25.20;36.60;;;;;;4054242;29;20040;-87
2022/08/11 15:55:10;;;;;;;2.25;0.60;;;25.20;36.60;;;;;;4115708;28;20049;-88